createdAt,value
2022-11-28T00:01:49.418Z,0.00
2022-11-28T00:06:49.333Z,0.00
2022-11-28T00:11:49.448Z,0.00
2022-11-28T00:16:49.323Z,0.00
2022-11-28T00:21:49.190Z,0.00
2022-11-28T00:26:49.145Z,0.00
2022-11-28T00:31:49.107Z,0.00
2022-11-28T00:36:49.027Z,0.00
2022-11-28T00:41:48.949Z,0.00
2022-11-28T00:46:48.914Z,0.00
2022-11-28T00:51:48.845Z,0.00
2022-11-28T00:56:48.795Z,0.00
2022-11-28T01:01:48.778Z,0.00
2022-11-28T01:06:48.674Z,0.00
2022-11-28T01:11:48.613Z,0.00
2022-11-28T01:16:49.774Z,0.00
2022-11-28T01:21:48.723Z,0.00
2022-11-28T01:26:48.657Z,0.00
2022-11-28T01:31:49.793Z,0.00
2022-11-28T01:36:48.328Z,0.00
2022-11-28T01:41:48.306Z,0.00
2022-11-28T01:46:48.353Z,0.00
2022-11-28T01:51:48.199Z,0.00
2022-11-28T01:56:48.122Z,0.00
2022-11-28T02:01:48.233Z,0.00
2022-11-28T02:06:48.025Z,0.00
2022-11-28T02:11:47.980Z,0.00
2022-11-28T02:16:47.914Z,0.00
2022-11-28T02:21:47.880Z,0.00
2022-11-28T02:26:47.829Z,0.00
2022-11-28T02:31:47.786Z,0.00
2022-11-28T02:36:47.691Z,0.00
2022-11-28T02:41:47.732Z,0.00
2022-11-28T02:46:47.644Z,0.00
2022-11-28T02:51:47.566Z,0.00
2022-11-28T02:56:47.496Z,0.00
2022-11-28T03:01:47.599Z,0.00
2022-11-28T03:06:47.404Z,0.00
2022-11-28T03:11:47.357Z,0.00
2022-11-28T03:16:47.301Z,0.00
2022-11-28T03:21:47.210Z,0.00
2022-11-28T03:26:47.160Z,0.00
2022-11-28T03:31:47.153Z,0.00
2022-11-28T03:36:47.052Z,0.00
2022-11-28T03:41:47.010Z,0.00
2022-11-28T03:46:46.952Z,0.00
2022-11-28T03:51:46.918Z,0.00
2022-11-28T03:56:46.813Z,0.00
2022-11-28T04:01:46.971Z,0.00
2022-11-28T04:06:46.727Z,0.00
2022-11-28T04:11:46.823Z,0.00
2022-11-28T04:16:52.195Z,0.00
2022-11-28T04:21:47.575Z,0.00
2022-11-28T04:26:46.491Z,0.00
2022-11-28T04:31:46.496Z,0.00
2022-11-28T04:36:46.389Z,0.00
2022-11-28T04:41:46.330Z,0.00
2022-11-28T04:46:46.260Z,0.00
2022-11-28T04:51:46.219Z,0.00
2022-11-28T04:56:46.145Z,0.00
2022-11-28T05:01:46.150Z,0.00
2022-11-28T05:06:54.927Z,0.00
2022-11-28T05:11:46.093Z,0.00
2022-11-28T05:16:46.018Z,0.00
2022-11-28T05:21:45.957Z,0.00
2022-11-28T05:26:45.845Z,0.00
2022-11-28T05:31:45.855Z,0.00
2022-11-28T05:36:45.732Z,0.00
2022-11-28T05:41:45.820Z,0.00
2022-11-28T05:46:45.597Z,0.00
2022-11-28T05:51:45.560Z,0.00
2022-11-28T05:56:45.482Z,0.00
2022-11-28T06:01:45.678Z,0.00
2022-11-28T06:06:45.394Z,0.00
2022-11-28T06:11:45.336Z,0.00
2022-11-28T06:16:45.473Z,0.00
2022-11-28T06:21:45.264Z,0.00
2022-11-28T06:26:45.193Z,0.00
2022-11-28T06:31:45.205Z,0.00
2022-11-28T06:36:45.116Z,4.00
2022-11-28T06:41:45.072Z,4.00
2022-11-28T06:46:45.000Z,12.00
2022-11-28T06:51:44.875Z,28.00
2022-11-28T06:56:44.880Z,56.00
2022-11-28T07:01:44.802Z,108.00
2022-11-28T07:06:44.830Z,180.00
2022-11-28T07:11:44.689Z,236.00
2022-11-28T07:16:44.655Z,300.00
2022-11-28T07:21:44.574Z,484.00
2022-11-28T07:26:44.478Z,648.00
2022-11-28T07:31:44.455Z,668.00
2022-11-28T07:36:44.401Z,748.00
2022-11-28T07:41:44.318Z,852.00
2022-11-28T07:46:44.331Z,908.00
2022-11-28T07:51:44.254Z,1408.00
2022-11-28T07:57:11.492Z,1384.00
2022-11-28T08:01:45.163Z,1464.00
2022-11-28T08:06:44.023Z,1436.00
2022-11-28T08:11:44.026Z,2080.00
2022-11-28T08:16:44.019Z,2296.00
2022-11-28T08:21:43.899Z,2348.00
2022-11-28T08:26:43.864Z,2412.00
2022-11-28T08:31:43.759Z,2924.00
2022-11-28T08:36:43.734Z,2836.00
2022-11-28T08:41:43.677Z,2424.00
2022-11-28T08:46:43.596Z,2044.00
2022-11-28T08:51:43.582Z,2288.00
2022-11-28T08:56:43.531Z,2864.00
2022-11-28T09:01:43.520Z,3592.00
2022-11-28T09:06:43.421Z,4328.00
2022-11-28T09:11:43.322Z,4208.00
2022-11-28T09:16:43.396Z,4036.00
2022-11-28T09:21:43.252Z,4712.00
2022-11-28T09:26:43.188Z,4316.00
2022-11-28T09:31:47.198Z,4160.00
2022-11-28T09:36:43.091Z,3688.00
2022-11-28T09:41:43.036Z,3872.00
2022-11-28T09:46:42.983Z,4764.00
2022-11-28T09:51:42.886Z,4672.00
2022-11-28T09:56:42.845Z,4800.00
2022-11-28T10:01:42.786Z,5336.00
2022-11-28T10:06:42.746Z,5144.00
2022-11-28T10:11:42.664Z,5268.00
2022-11-28T10:16:42.735Z,5200.00
2022-11-28T10:21:42.591Z,5788.00
2022-11-28T10:26:42.538Z,6288.00
2022-11-28T10:31:42.479Z,6476.00
2022-11-28T10:36:42.430Z,6428.00
2022-11-28T10:41:42.344Z,6060.00
2022-11-28T10:46:42.399Z,5424.00
2022-11-28T10:51:42.258Z,4692.00
2022-11-28T10:56:42.163Z,4820.00
2022-11-28T11:01:47.255Z,5048.00
2022-11-28T11:07:53.656Z,5144.00
2022-11-28T11:12:53.387Z,5668.00
2022-11-28T11:17:53.395Z,6752.00
2022-11-28T11:22:53.251Z,7720.00
2022-11-28T11:27:53.282Z,6848.00
2022-11-28T11:32:53.160Z,5812.00
2022-11-28T11:37:53.236Z,5500.00
2022-11-28T11:42:53.106Z,4920.00
2022-11-28T11:47:53.051Z,4952.00
2022-11-28T11:52:53.051Z,5708.00
2022-11-28T11:57:52.993Z,4672.00
2022-11-28T12:02:52.904Z,3384.00
2022-11-28T12:07:52.971Z,3236.00
2022-11-28T12:12:52.919Z,3384.00
2022-11-28T12:22:53.729Z,3088.00
2022-11-28T12:27:52.645Z,3304.00
2022-11-28T12:32:52.565Z,2940.00
2022-11-28T12:38:10.346Z,3204.00
2022-11-28T12:42:53.481Z,2928.00
2022-11-28T12:47:52.337Z,2824.00
2022-11-28T12:52:52.343Z,3456.00
2022-11-28T12:57:52.205Z,4732.00
2022-11-28T13:02:52.206Z,5440.00
2022-11-28T13:07:52.343Z,7224.00
2022-11-28T13:12:52.066Z,7196.00
2022-11-28T13:17:51.996Z,5816.00
2022-11-28T13:22:52.135Z,4680.00
2022-11-28T13:27:51.951Z,4016.00
2022-11-28T13:32:52.017Z,3056.00
2022-11-28T13:43:06.588Z,1892.00
2022-11-28T13:47:52.676Z,1812.00
2022-11-28T13:52:51.644Z,1716.00
2022-11-28T13:57:51.644Z,1980.00
2022-11-28T14:02:52.637Z,2532.00
2022-11-28T14:07:51.539Z,2484.00
2022-11-28T14:12:51.415Z,2172.00
2022-11-28T14:17:51.445Z,2172.00
2022-11-28T14:22:51.363Z,2324.00
2022-11-28T14:27:51.273Z,1868.00
2022-11-28T14:32:51.205Z,1704.00
2022-11-28T14:37:51.130Z,1476.00
2022-11-28T14:43:00.431Z,1360.00
2022-11-28T14:47:52.091Z,1360.00
2022-11-28T14:52:50.955Z,1020.00
2022-11-28T14:57:51.035Z,804.00
2022-11-28T15:02:50.928Z,496.00
2022-11-28T15:07:50.987Z,348.00
2022-11-28T15:12:50.747Z,260.00
2022-11-28T15:17:50.779Z,232.00
2022-11-28T15:22:50.671Z,184.00
2022-11-28T15:27:50.580Z,148.00
2022-11-28T15:32:50.588Z,88.00
2022-11-28T15:37:50.475Z,52.00
2022-11-28T15:42:50.512Z,28.00
2022-11-28T15:47:50.420Z,12.00
2022-11-28T15:52:50.378Z,4.00
2022-11-28T15:57:50.296Z,0.00
2022-11-28T16:02:50.231Z,0.00
2022-11-28T16:07:50.201Z,0.00
2022-11-28T16:12:50.111Z,0.00
2022-11-28T16:17:50.036Z,0.00
2022-11-28T16:22:50.032Z,0.00
2022-11-28T16:27:49.921Z,0.00
2022-11-28T16:32:49.871Z,0.00
2022-11-28T16:37:49.881Z,0.00
2022-11-28T16:42:49.763Z,0.00
2022-11-28T16:47:49.752Z,0.00
2022-11-28T16:52:49.650Z,0.00
2022-11-28T16:57:49.650Z,0.00
2022-11-28T17:02:49.555Z,0.00
2022-11-28T17:07:58.446Z,0.00
2022-11-28T17:12:49.529Z,0.00
2022-11-28T17:17:49.490Z,0.00
2022-11-28T17:22:49.399Z,0.00
2022-11-28T17:27:49.283Z,0.00
2022-11-28T17:32:49.250Z,0.00
2022-11-28T17:37:49.298Z,0.00
2022-11-28T17:42:49.121Z,0.00
2022-11-28T17:47:49.059Z,0.00
2022-11-28T17:52:49.014Z,0.00
2022-11-28T17:57:48.926Z,0.00
2022-11-28T18:02:50.362Z,0.00
2022-11-28T18:07:49.403Z,0.00
2022-11-28T18:12:48.949Z,0.00
2022-11-28T18:17:48.959Z,0.00
2022-11-28T18:22:48.801Z,0.00
2022-11-28T18:27:48.625Z,0.00
2022-11-28T18:32:48.578Z,0.00
2022-11-28T18:37:48.578Z,0.00
2022-11-28T18:42:48.490Z,0.00
2022-11-28T18:47:48.521Z,0.00
2022-11-28T18:52:48.439Z,0.00
2022-11-28T18:57:48.340Z,0.00
2022-11-28T19:02:48.279Z,0.00
2022-11-28T19:07:48.257Z,0.00
2022-11-28T19:12:49.205Z,0.00
2022-11-28T19:17:48.144Z,0.00
2022-11-28T19:22:48.160Z,0.00
2022-11-28T19:27:47.992Z,0.00
2022-11-28T19:32:47.884Z,0.00
2022-11-28T19:37:47.845Z,0.00
2022-11-28T19:42:47.795Z,0.00
2022-11-28T19:47:47.725Z,0.00
2022-11-28T19:52:47.687Z,0.00
2022-11-28T19:57:47.652Z,0.00
2022-11-28T20:02:47.590Z,0.00
2022-11-28T20:07:47.686Z,0.00
2022-11-28T20:12:47.471Z,0.00
2022-11-28T20:17:47.473Z,0.00
2022-11-28T20:22:47.493Z,0.00
2022-11-28T20:27:47.299Z,0.00
2022-11-28T20:32:47.398Z,0.00
2022-11-28T20:37:47.326Z,0.00
2022-11-28T20:42:47.304Z,0.00
2022-11-28T20:47:49.980Z,0.00
2022-11-28T20:52:47.122Z,0.00
2022-11-28T20:57:47.059Z,0.00
2022-11-28T21:02:46.925Z,0.00
2022-11-28T21:07:47.058Z,0.00
2022-11-28T21:12:47.042Z,0.00
2022-11-28T21:17:46.991Z,0.00
2022-11-28T21:22:46.703Z,0.00
2022-11-28T21:27:46.667Z,0.00
2022-11-28T21:32:46.582Z,0.00
2022-11-28T21:37:46.575Z,0.00
2022-11-28T21:42:46.480Z,0.00
2022-11-28T21:47:46.478Z,0.00
2022-11-28T21:52:46.537Z,0.00
2022-11-28T21:57:46.308Z,0.00
2022-11-28T22:02:46.306Z,0.00
2022-11-28T22:07:46.376Z,0.00
2022-11-28T22:12:46.193Z,0.00
2022-11-28T22:17:46.106Z,0.00
2022-11-28T22:22:46.070Z,0.00
2022-11-28T22:27:45.992Z,0.00
2022-11-28T22:32:45.961Z,0.00
2022-11-28T22:37:45.995Z,0.00
2022-11-28T22:42:45.891Z,0.00
2022-11-28T22:47:45.921Z,0.00
2022-11-28T22:52:45.746Z,0.00
2022-11-28T22:57:45.778Z,0.00
2022-11-28T23:02:45.791Z,0.00
2022-11-28T23:07:45.582Z,0.00
2022-11-28T23:12:45.536Z,0.00
2022-11-28T23:17:45.485Z,0.00
2022-11-28T23:22:45.428Z,0.00
2022-11-28T23:27:54.207Z,0.00
2022-11-28T23:32:45.316Z,0.00
2022-11-28T23:37:45.346Z,0.00
2022-11-28T23:42:45.273Z,0.00
2022-11-28T23:47:45.215Z,0.00
2022-11-28T23:52:45.236Z,0.00
2022-11-28T23:57:45.157Z,0.00
